createdAt,value
2023-01-04T00:04:32.595Z,17.41145
2023-01-04T00:09:34.353Z,17.041856
2023-01-04T00:14:36.122Z,16.399514
2023-01-04T00:19:37.917Z,17.289636
2023-01-04T00:24:39.535Z,17.516668
2023-01-04T00:29:41.332Z,18.024238
2023-01-04T00:34:44.011Z,17.891744
2023-01-04T00:39:45.829Z,17.514646
2023-01-04T00:44:47.632Z,17.425928
2023-01-04T00:49:49.120Z,17.164212
2023-01-04T00:54:50.882Z,17.296258
2023-01-04T00:59:52.678Z,17.640694
2023-01-04T01:04:54.540Z,17.804872
2023-01-04T01:09:56.277Z,17.053254
2023-01-04T01:15:00.612Z,17.336152
2023-01-04T01:20:02.852Z,17.442266
2023-01-04T01:25:04.524Z,16.620372
2023-01-04T01:30:06.044Z,17.203754
2023-01-04T01:35:08.298Z,17.336858
2023-01-04T01:40:09.800Z,17.15565
2023-01-04T01:45:11.329Z,17.17135
2023-01-04T01:50:12.913Z,16.976722
2023-01-04T01:55:14.499Z,16.425472
2023-01-04T02:00:16.176Z,16.67659
2023-01-04T02:05:18.017Z,16.203284
2023-01-04T02:10:19.777Z,16.757628
2023-01-04T02:15:21.473Z,16.623452
2023-01-04T02:20:23.282Z,16.371356
2023-01-04T02:25:25.155Z,16.72559
2023-01-04T02:30:26.958Z,16.675532
2023-01-04T02:35:29.124Z,16.68921
2023-01-04T02:40:30.880Z,16.28405
2023-01-04T02:45:32.672Z,16.239474
2023-01-04T02:50:34.365Z,16.220938
2023-01-04T02:55:36.044Z,15.439318
2023-01-04T03:00:37.720Z,16.177692
2023-01-04T03:05:39.643Z,16.09622
2023-01-04T03:10:41.374Z,15.989414
2023-01-04T03:15:43.099Z,16.303034
2023-01-04T03:20:45.040Z,16.536512
2023-01-04T03:25:46.887Z,16.035836
2023-01-04T03:30:48.660Z,16.1724
2023-01-04T03:35:50.691Z,15.865212
2023-01-04T03:40:52.473Z,15.479566
2023-01-04T03:45:54.238Z,16.096478
2023-01-04T03:50:55.920Z,16.532984
2023-01-04T03:55:57.916Z,16.215212
2023-01-04T04:00:59.782Z,16.615514
2023-01-04T04:06:01.876Z,15.95693
2023-01-04T04:11:03.690Z,15.83521
2023-01-04T04:16:05.456Z,15.9526
2023-01-04T04:21:07.221Z,16.433234
2023-01-04T04:26:08.856Z,15.962316
2023-01-04T04:31:10.338Z,15.988356
2023-01-04T04:36:11.993Z,16.294906
2023-01-04T04:41:13.517Z,15.90546
2023-01-04T04:46:15.094Z,16.361818
2023-01-04T04:51:16.740Z,17.15219
2023-01-04T04:56:18.217Z,17.938614
2023-01-04T05:01:19.931Z,17.963066
2023-01-04T05:06:22.200Z,19.564004
2023-01-04T05:11:23.691Z,19.974022
2023-01-04T05:16:25.228Z,19.888466
2023-01-04T05:21:26.864Z,20.92183
2023-01-04T05:26:28.368Z,21.96985
2023-01-04T05:31:29.961Z,22.415828
2023-01-04T05:36:32.187Z,23.249164
2023-01-04T05:41:33.660Z,23.330378
2023-01-04T05:46:35.203Z,23.070398
2023-01-04T05:51:37.010Z,23.726244
2023-01-04T05:56:38.462Z,24.403964
2023-01-04T06:01:40.000Z,24.520934
2023-01-04T06:06:41.702Z,25.303276
2023-01-04T06:11:43.461Z,25.910828
2023-01-04T06:16:44.997Z,25.516672
2023-01-04T06:21:46.627Z,26.03153
2023-01-04T06:26:48.066Z,25.850526
2023-01-04T06:31:49.627Z,24.727464
2023-01-04T06:36:51.274Z,26.173672
2023-01-04T06:41:52.882Z,26.031096
2023-01-04T06:46:54.467Z,26.144972
2023-01-04T06:51:56.222Z,27.645704
2023-01-04T06:56:58.011Z,27.768848
2023-01-04T07:01:59.955Z,27.677688
2023-01-04T07:07:01.957Z,27.954006
2023-01-04T07:12:03.700Z,28.230772
2023-01-04T07:17:08.568Z,27.216008
2023-01-04T07:22:10.226Z,28.529372
2023-01-04T07:27:11.735Z,27.321512
2023-01-04T07:32:14.134Z,29.337822
2023-01-04T07:37:15.957Z,27.996614
2023-01-04T07:42:17.908Z,28.583242
2023-01-04T07:47:19.557Z,28.376428
2023-01-04T07:52:21.498Z,28.93726
2023-01-04T07:57:23.239Z,29.400704
2023-01-04T08:02:25.171Z,29.23848
2023-01-04T08:07:27.062Z,28.208286
2023-01-04T08:12:28.822Z,27.367852
2023-01-04T08:17:30.640Z,26.75764
2023-01-04T08:22:32.663Z,28.472216
2023-01-04T08:27:34.475Z,27.69055
2023-01-04T08:32:36.240Z,30.080488
2023-01-04T08:37:37.827Z,28.325638
2023-01-04T08:42:39.643Z,30.112038
2023-01-04T08:47:41.450Z,29.982718
2023-01-04T08:52:43.402Z,27.219102
2023-01-04T08:57:45.172Z,27.438442
2023-01-04T09:02:47.059Z,26.97147
2023-01-04T09:07:48.850Z,27.351528
2023-01-04T09:12:50.620Z,27.845218
2023-01-04T09:18:29.437Z,27.778564
2023-01-04T09:23:33.098Z,27.127046
2023-01-04T09:28:34.569Z,26.08053
2023-01-04T09:34:12.286Z,25.861802
2023-01-04T09:39:21.762Z,25.9433
2023-01-04T09:44:39.719Z,26.216714
2023-01-04T09:49:56.951Z,26.811728
2023-01-04T09:55:02.829Z,26.540472
2023-01-04T10:00:43.916Z,28.468484
2023-01-04T10:05:45.954Z,27.765116
2023-01-04T10:10:47.445Z,27.200566
2023-01-04T10:15:49.096Z,28.259458
2023-01-04T10:21:30.019Z,28.35857
2023-01-04T10:26:35.573Z,28.420814
2023-01-04T10:31:40.279Z,27.25004
2023-01-04T10:36:43.310Z,27.359018
2023-01-04T10:41:45.040Z,25.879496
2023-01-04T10:46:46.780Z,26.662734
2023-01-04T10:51:48.599Z,26.787682
2023-01-04T10:56:50.254Z,27.781006
2023-01-04T11:01:52.202Z,28.481958
2023-01-04T11:06:54.056Z,28.83067
2023-01-04T11:11:55.718Z,27.535178
2023-01-04T11:16:57.440Z,28.54461
2023-01-04T11:21:59.227Z,28.897054
2023-01-04T11:27:01.211Z,28.258576
2023-01-04T11:32:02.824Z,28.372426
2023-01-04T11:37:04.377Z,29.344418
2023-01-04T11:42:05.948Z,28.422334
2023-01-04T11:47:07.521Z,27.709494
2023-01-04T11:52:09.196Z,28.382142
2023-01-04T11:57:11.688Z,28.93988
2023-01-04T12:02:28.557Z,28.35283
2023-01-04T12:07:44.702Z,27.746784
2023-01-04T12:12:46.523Z,28.218844
2023-01-04T12:17:48.291Z,27.888478
2023-01-04T12:22:50.359Z,27.59912
2023-01-04T12:27:52.373Z,27.609948
2023-01-04T12:32:54.201Z,27.411994
2023-01-04T12:37:56.110Z,27.883824
2023-01-04T12:42:57.882Z,26.9525
2023-01-04T12:47:59.540Z,27.497184
2023-01-04T12:53:28.312Z,27.17207
2023-01-04T12:59:06.890Z,27.142054
2023-01-04T13:04:25.165Z,26.986248
2023-01-04T13:09:27.089Z,27.133642
2023-01-04T13:14:28.574Z,27.546118
2023-01-04T13:19:30.154Z,26.798622
2023-01-04T13:24:31.845Z,26.077884
2023-01-04T13:29:33.663Z,25.843226
2023-01-04T13:34:35.373Z,25.905904
2023-01-04T13:39:36.942Z,26.06175
2023-01-04T13:45:09.381Z,25.254684
2023-01-04T13:50:19.976Z,24.166944
2023-01-04T13:55:21.643Z,23.978964
2023-01-04T14:00:23.561Z,24.051548
2023-01-04T14:05:25.033Z,23.691818
2023-01-04T14:10:26.635Z,24.267576
2023-01-04T14:15:28.171Z,24.443248
2023-01-04T14:20:29.610Z,24.855072
2023-01-04T14:25:31.127Z,24.293426
2023-01-04T14:30:32.874Z,24.301174
2023-01-04T14:35:37.055Z,23.823348
2023-01-04T14:40:42.051Z,23.33719
2023-01-04T14:45:43.825Z,23.52213
2023-01-04T14:50:45.588Z,23.48442
2023-01-04T14:55:47.183Z,22.798016
2023-01-04T15:00:49.174Z,22.641816
2023-01-04T15:05:50.679Z,22.695226
2023-01-04T15:10:57.880Z,22.84019
2023-01-04T15:16:01.491Z,22.932694
2023-01-04T15:21:03.005Z,22.985792
2023-01-04T15:26:04.584Z,22.758976
2023-01-04T15:31:06.406Z,22.61332
2023-01-04T15:36:08.289Z,22.418922
2023-01-04T15:41:09.826Z,22.479578
2023-01-04T15:46:11.555Z,22.61332
2023-01-04T15:51:13.062Z,22.667992
2023-01-04T15:56:14.701Z,23.065242
2023-01-04T16:01:16.482Z,22.503854
2023-01-04T16:06:18.146Z,22.895758
2023-01-04T16:11:19.648Z,22.843718
2023-01-04T16:16:21.253Z,22.276794
2023-01-04T16:21:22.842Z,22.115452
2023-01-04T16:26:24.462Z,22.198864
2023-01-04T16:31:26.245Z,22.09161
2023-01-04T16:36:27.867Z,21.568828
2023-01-04T16:41:29.319Z,21.899166
2023-01-04T16:46:30.817Z,21.879938
2023-01-04T16:51:32.329Z,21.783526
2023-01-04T16:56:34.168Z,21.806092
2023-01-04T17:01:38.327Z,21.93271
2023-01-04T17:06:42.096Z,21.862338
2023-01-04T17:17:20.521Z,21.5653
2023-01-04T17:22:22.261Z,21.997844
2023-01-04T17:27:24.029Z,21.372856
2023-01-04T17:32:25.892Z,21.421408
2023-01-04T17:37:27.339Z,21.729492
2023-01-04T17:42:28.795Z,21.671672
2023-01-04T17:47:30.600Z,21.411896
2023-01-04T17:52:32.236Z,21.218624
2023-01-04T17:57:34.010Z,21.123542
2023-01-04T18:02:35.975Z,20.99725
2023-01-04T18:07:37.524Z,21.1533
2023-01-04T18:12:39.349Z,20.338094
2023-01-04T18:17:41.125Z,20.713252
2023-01-04T18:22:42.867Z,20.99839
2023-01-04T18:27:44.586Z,20.003156
2023-01-04T18:32:46.799Z,19.865262
2023-01-04T18:37:48.579Z,19.961294
2023-01-04T18:42:50.134Z,18.992752
2023-01-04T18:47:51.915Z,19.215646
2023-01-04T18:52:53.725Z,20.262742
2023-01-04T18:57:55.528Z,20.254302
2023-01-04T19:02:57.746Z,19.877366
2023-01-04T19:07:59.575Z,19.836128
2023-01-04T19:13:01.659Z,19.248932
2023-01-04T19:18:03.440Z,19.098364
2023-01-04T19:23:05.461Z,19.12819
2023-01-04T19:28:07.355Z,18.61929
2023-01-04T19:33:09.307Z,18.62176
2023-01-04T19:38:11.058Z,19.37863
2023-01-04T19:43:12.525Z,19.067466
2023-01-04T19:48:14.306Z,19.063748
2023-01-04T19:53:15.803Z,19.317526
2023-01-04T19:58:17.334Z,19.365644
2023-01-04T20:03:19.126Z,19.347732
2023-01-04T20:08:20.833Z,18.57276
2023-01-04T20:13:22.312Z,18.738648
2023-01-04T20:18:23.867Z,19.36236
2023-01-04T20:23:25.423Z,18.607634
2023-01-04T20:28:26.878Z,18.686378
2023-01-04T20:33:28.519Z,18.856744
2023-01-04T20:38:32.531Z,19.083858
2023-01-04T20:43:36.338Z,19.162168
2023-01-04T20:48:37.825Z,18.71136
2023-01-04T20:53:39.473Z,18.914822
2023-01-04T20:58:41.097Z,18.433034
2023-01-04T21:03:43.024Z,18.13449
2023-01-04T21:08:44.527Z,18.82567
2023-01-04T21:13:46.148Z,18.630146
2023-01-04T21:18:47.929Z,18.564374
2023-01-04T21:23:54.733Z,19.10329
2023-01-04T21:28:59.507Z,19.05889
2023-01-04T21:34:01.128Z,19.159522
2023-01-04T21:39:02.937Z,18.627934
2023-01-04T21:44:04.654Z,18.962234
2023-01-04T21:49:06.124Z,19.061794
2023-01-04T21:54:07.950Z,18.795206
2023-01-04T21:59:09.594Z,18.502334
2023-01-04T22:04:11.608Z,18.876162
2023-01-04T22:09:13.177Z,18.903532
2023-01-04T22:14:14.617Z,18.942626
2023-01-04T22:19:16.065Z,18.465262
2023-01-04T22:24:17.647Z,18.487136
2023-01-04T22:29:19.154Z,18.790362
2023-01-04T22:34:20.797Z,18.5785
2023-01-04T22:39:22.490Z,18.589532
2023-01-04T22:44:23.939Z,18.819224
2023-01-04T22:49:25.427Z,19.31602
2023-01-04T22:54:26.885Z,18.627418
2023-01-04T22:59:28.433Z,19.018724
2023-01-04T23:04:30.104Z,19.037084
2023-01-04T23:09:31.928Z,18.637826
2023-01-04T23:14:33.741Z,18.504804
2023-01-04T23:19:35.488Z,18.920114
2023-01-04T23:24:37.229Z,18.743126
2023-01-04T23:29:38.995Z,19.089598
2023-01-04T23:34:41.068Z,18.650188
2023-01-04T23:39:42.881Z,18.624596
2023-01-04T23:44:44.666Z,19.057384
2023-01-04T23:49:46.482Z,18.636062
2023-01-04T23:54:48.243Z,19.036636
2023-01-04T23:59:50.018Z,18.76078
